Thunder radar more information blitzortung!


Radar de pluja more information rain snow radar


Visita la nostra xarxa de llocs de meteo:

Template documentation
and downloads

And another site



No particular awareness of the weather is required.    There are no Weather-warnings

Pagina Historial Weather Underground text

Diari Resum Setembre 21, 2017 Unitats:  Mètric    Imperial   Tant
« Previous Dia
SegĂźent Dia »
Diari Setmana Mensual Anual Personalitzada
  Maxima: Minima: Media:
Temperatura: 27.5 °C 13.0 °C 21.3 °C
Punt de rosada: 15.9 °C 8.6 °C 14 °C
Humitat: 81 % 47 % 64 %
Wind Speed: 20.4 km/h 0.0 km/h 6.2 km/h
RĂ fegues de vent: 20.4 km/h - -
Vent:- - SSW
Pression baro: 1018.8 hPa 1014.8 hPa -
Precipitacions: 0.0 mm    
Historical Graphs
 
 
Dades de taula per Setembre 21, 2017
Temps Temperatura Punt de rosada Pression baro Vent Wind Speed RĂ fegues de vent Humitat Rainfall Rate (Hourly)
00:00 13.4 °C 8.7 °C 1017.8 hPa West 1.6 km/h 3.2 km/h 73 % 0.0 mm
00:03 15.8 °C 8.6 °C 1017.8 hPa Calm     62 % 0.0 mm
00:10 13.4 °C 8.8 °C 1017.8 hPa Calm     74 % 0.0 mm
00:20 13.4 °C 8.8 °C 1017.8 hPa Calm     74 % 0.0 mm
00:30 13.4 °C 8.8 °C 1017.8 hPa Calm     74 % 0.0 mm
00:40 13.3 °C 8.8 °C 1017.8 hPa Calm   1.6 km/h 74 % 0.0 mm
00:50 13.3 °C 8.8 °C 1017.8 hPa WSW 1.6 km/h 3.2 km/h 74 % 0.0 mm
01:00 13.4 °C 9.1 °C 1016.8 hPa WSW 1.6 km/h 1.6 km/h 75 % 0.0 mm
01:10 13.5 °C 9.2 °C 1017.8 hPa Calm     75 % 0.0 mm
01:20 13.4 °C 9.1 °C 1017.8 hPa Calm   3.2 km/h 75 % 0.0 mm
01:30 13.3 °C 8.9 °C 1017.8 hPa Calm     75 % 0.0 mm
01:40 13.2 °C 8.9 °C 1017.8 hPa Calm   3.2 km/h 75 % 0.0 mm
01:50 13.2 °C 8.9 °C 1017.8 hPa Calm     75 % 0.0 mm
02:00 13.0 °C 8.7 °C 1017.8 hPa WSW 1.6 km/h 3.2 km/h 75 % 0.0 mm
02:10 13.0 °C 8.9 °C 1017.8 hPa Calm     76 % 0.0 mm
02:20 13.0 °C 9.1 °C 1017.8 hPa Calm   1.6 km/h 77 % 0.0 mm
02:30 13.0 °C 8.9 °C 1017.8 hPa Calm   3.2 km/h 76 % 0.0 mm
02:40 13.1 °C 8.9 °C 1016.8 hPa Calm   1.6 km/h 76 % 0.0 mm
02:50 13.1 °C 9.2 °C 1016.8 hPa Calm   1.6 km/h 77 % 0.0 mm
03:00 13.0 °C 8.9 °C 1017.8 hPa NNE 1.6 km/h 1.6 km/h 76 % 0.0 mm
03:10 13.2 °C 9.1 °C 1017.8 hPa Calm   3.2 km/h 76 % 0.0 mm
03:20 13.3 °C 9.2 °C 1017.8 hPa Calm     76 % 0.0 mm
03:30 13.2 °C 9.1 °C 1017.8 hPa WNW 1.6 km/h 3.2 km/h 76 % 0.0 mm
03:40 13.5 °C 9.6 °C 1017.8 hPa WSW 1.6 km/h 1.6 km/h 77 % 0.0 mm
03:50 13.7 °C 9.7 °C 1017.8 hPa Calm   3.2 km/h 77 % 0.0 mm
04:00 13.7 °C 9.6 °C 1017.8 hPa SW 1.6 km/h 3.2 km/h 76 % 0.0 mm
04:10 14.8 °C 10.8 °C 1018.8 hPa SW 1.6 km/h 1.6 km/h 77 % 0.0 mm
04:20 15.4 °C 10.8 °C 1018.8 hPa Calm   4.8 km/h 74 % 0.0 mm
04:30 15.9 °C 10.7 °C 1018.8 hPa NNE 4.8 km/h 4.8 km/h 71 % 0.0 mm
04:40 15.7 °C 10.2 °C 1018.8 hPa NNE 1.6 km/h 1.6 km/h 70 % 0.0 mm
04:50 16.1 °C 10.4 °C 1018.8 hPa NW 1.6 km/h 3.2 km/h 69 % 0.0 mm
05:00 16.9 °C 10.9 °C 1018.8 hPa NW 1.6 km/h 3.2 km/h 68 % 0.0 mm
05:10 16.8 °C 10.6 °C 1018.8 hPa Calm   3.2 km/h 67 % 0.0 mm
05:20 17.0 °C 10.6 °C 1018.8 hPa South 1.6 km/h 3.2 km/h 66 % 0.0 mm
05:30 18.3 °C 11.8 °C 1018.8 hPa ESE 1.6 km/h 3.2 km/h 66 % 0.0 mm
05:40 18.2 °C 11.5 °C 1018.8 hPa Calm   4.8 km/h 65 % 0.0 mm
05:50 18.5 °C 11.3 °C 1018.8 hPa ENE 4.8 km/h 4.8 km/h 63 % 0.0 mm
06:00 19.2 °C 11.7 °C 1018.8 hPa NE 3.2 km/h 6.4 km/h 62 % 0.0 mm
06:10 19.0 °C 11.6 °C 1018.8 hPa ENE 1.6 km/h 4.8 km/h 62 % 0.0 mm
11:18 19.8 °C 12.3 °C 1018.8 hPa ENE 3.7 km/h 3.7 km/h 62 % 0.0 mm
11:19 19.8 °C 12.3 °C 1018.8 hPa ENE 3.7 km/h 3.7 km/h 62 % 0.0 mm
11:24 19.9 °C 12.2 °C 1018.8 hPa NE 3.7 km/h 4.2 km/h 61 % 0.0 mm
11:29 20.0 °C 12.0 °C 1018.8 hPa East 3.7 km/h 3.7 km/h 60 % 0.0 mm
11:34 20.6 °C 12.6 °C 1018.8 hPa ESE 1.9 km/h 1.9 km/h 60 % 0.0 mm
11:39 20.9 °C 12.8 °C 1018.8 hPa WSW 1.9 km/h   60 % 0.0 mm
11:44 21.2 °C 12.9 °C 1018.8 hPa SE 3.9 km/h 3.9 km/h 59 % 0.0 mm
11:49 21.1 °C 12.8 °C 1018.8 hPa East 5.6 km/h 5.6 km/h 59 % 0.0 mm
11:54 21.2 °C 12.6 °C 1018.8 hPa ESE 7.4 km/h 7.4 km/h 58 % 0.0 mm
11:59 21.3 °C 13.2 °C 1018.8 hPa NNE 3.7 km/h 3.7 km/h 60 % 0.0 mm
12:04 21.6 °C 13.8 °C 1018.8 hPa East 5.6 km/h 5.6 km/h 61 % 0.0 mm
12:09 21.6 °C 13.8 °C 1018.8 hPa WNW 5.6 km/h 5.6 km/h 61 % 0.0 mm
12:14 22.3 °C 14.2 °C 1018.8 hPa ESE 6.4 km/h 6.4 km/h 60 % 0.0 mm
12:19 22.1 °C 13.9 °C 1017.8 hPa NE 9.3 km/h 9.3 km/h 60 % 0.0 mm
12:24 22.4 °C 14.3 °C 1017.8 hPa ESE 9.3 km/h 9.3 km/h 60 % 0.0 mm
12:29 22.4 °C 14.3 °C 1017.8 hPa South 9.3 km/h 9.3 km/h 60 % 0.0 mm
12:34 22.6 °C 14.2 °C 1017.8 hPa SSE 5.6 km/h 5.6 km/h 59 % 0.0 mm
12:39 22.7 °C 14.6 °C 1017.8 hPa NNE 5.6 km/h 5.6 km/h 60 % 0.0 mm
12:44 23.3 °C 15.1 °C 1017.8 hPa ESE 6.1 km/h 6.1 km/h 60 % 0.0 mm
12:49 22.9 °C 14.2 °C 1017.8 hPa SE 11.1 km/h 11.1 km/h 58 % 0.0 mm
12:54 22.9 °C 14.4 °C 1017.8 hPa ENE 7.4 km/h 7.4 km/h 59 % 0.0 mm
12:59 23.0 °C 14.6 °C 1017.8 hPa East 9.3 km/h 9.3 km/h 59 % 0.0 mm
13:04 23.2 °C 14.5 °C 1016.8 hPa ESE 5.6 km/h 5.6 km/h 58 % 0.0 mm
13:09 23.4 °C 14.9 °C 1016.8 hPa East 9.3 km/h 9.3 km/h 59 % 0.0 mm
13:14 23.6 °C 14.8 °C 1016.8 hPa NNE 9.3 km/h 9.3 km/h 58 % 0.0 mm
13:19 23.6 °C 14.8 °C 1017.8 hPa ESE 3.7 km/h 3.7 km/h 58 % 0.0 mm
13:24 24.3 °C 15.2 °C 1017.8 hPa ESE 5.6 km/h 5.6 km/h 57 % 0.0 mm
13:29 24.5 °C 15.2 °C 1017.8 hPa NE 7.4 km/h 7.4 km/h 56 % 0.0 mm
13:34 24.2 °C 14.6 °C 1017.8 hPa SE 7.4 km/h 7.4 km/h 55 % 0.0 mm
13:39 24.6 °C 14.9 °C 1017.8 hPa SSE 9.3 km/h 9.3 km/h 55 % 0.0 mm
13:44 24.4 °C 14.8 °C 1017.8 hPa NW 9.3 km/h 9.3 km/h 55 % 0.0 mm
13:49 24.6 °C 14.9 °C 1017.8 hPa SSE 7.4 km/h 8.7 km/h 55 % 0.0 mm
13:54 25.1 °C 15.1 °C 1017.8 hPa SSW 7.4 km/h 7.4 km/h 54 % 0.0 mm
13:59 25.6 °C 15.6 °C 1017.8 hPa SW 5.6 km/h 5.6 km/h 54 % 0.0 mm
14:04 25.2 °C 15.2 °C 1017.8 hPa WSW 5.6 km/h 5.6 km/h 54 % 0.0 mm
14:09 25.4 °C 15.4 °C 1017.8 hPa SW 13.0 km/h 13.0 km/h 54 % 0.0 mm
14:14 26.1 °C 15.8 °C 1017.8 hPa SSE 4.2 km/h 4.2 km/h 53 % 0.0 mm
14:19 26.2 °C 15.9 °C 1017.8 hPa SSE 3.7 km/h   53 % 0.0 mm
14:24 25.9 °C 15.6 °C 1017.8 hPa East 9.3 km/h 9.3 km/h 53 % 0.0 mm
14:29 26.3 °C 15.7 °C 1017.8 hPa ESE 7.4 km/h 7.4 km/h 52 % 0.0 mm
14:34 27.0 °C 15.7 °C 1016.8 hPa South 3.7 km/h 3.7 km/h 50 % 0.0 mm
14:39 27.2 °C 15.9 °C 1016.8 hPa SW 9.3 km/h 9.3 km/h 50 % 0.0 mm
14:44 26.7 °C 15.4 °C 1016.8 hPa SSW 14.8 km/h 14.8 km/h 50 % 0.0 mm
14:49 26.9 °C 15.6 °C 1015.8 hPa SSW 9.3 km/h 9.3 km/h 50 % 0.0 mm
14:54 27.0 °C 15.4 °C 1015.8 hPa WSW 13.0 km/h 13.0 km/h 49 % 0.0 mm
14:59 26.6 °C 15.0 °C 1015.8 hPa SSW 9.3 km/h 9.3 km/h 49 % 0.0 mm
15:04 26.9 °C 15.3 °C 1015.8 hPa West 9.3 km/h 9.3 km/h 49 % 0.0 mm
15:09 27.3 °C 15.3 °C 1015.8 hPa SSW 9.3 km/h 9.3 km/h 48 % 0.0 mm
15:14 27.5 °C 15.5 °C 1015.8 hPa SW 9.3 km/h 9.3 km/h 48 % 0.0 mm
15:19 27.5 °C 15.2 °C 1015.8 hPa NNW 7.4 km/h 7.4 km/h 47 % 0.0 mm
15:24 27.2 °C 15.2 °C 1015.8 hPa SW 13.0 km/h 13.0 km/h 48 % 0.0 mm
15:29 27.0 °C 15.1 °C 1015.8 hPa SSW 3.7 km/h 3.7 km/h 48 % 0.0 mm
15:34 26.9 °C 15.3 °C 1015.8 hPa South 5.6 km/h 5.6 km/h 49 % 0.0 mm
15:39 27.0 °C 15.1 °C 1015.8 hPa WSW 4.7 km/h 4.7 km/h 48 % 0.0 mm
15:44 27.2 °C 15.2 °C 1015.8 hPa SSW 9.3 km/h 9.3 km/h 48 % 0.0 mm
15:49 27.0 °C 15.1 °C 1015.8 hPa SW 13.0 km/h 13.0 km/h 48 % 0.0 mm
15:54 26.5 °C 14.9 °C 1015.8 hPa WSW 6.1 km/h 6.1 km/h 49 % 0.0 mm
15:59 26.7 °C 15.1 °C 1015.8 hPa WSW 7.4 km/h 7.4 km/h 49 % 0.0 mm
16:04 26.9 °C 15.6 °C 1015.8 hPa West 14.8 km/h 14.8 km/h 50 % 0.0 mm
16:09 26.5 °C 15.2 °C 1015.8 hPa South 7.4 km/h 7.4 km/h 50 % 0.0 mm
16:14 26.5 °C 15.2 °C 1015.8 hPa WSW 9.3 km/h 9.3 km/h 50 % 0.0 mm
16:19 25.8 °C 14.6 °C 1015.8 hPa SE 9.3 km/h 9.5 km/h 50 % 0.0 mm
16:24 26.0 °C 14.8 °C 1015.8 hPa South 14.8 km/h 14.8 km/h 50 % 0.0 mm
16:29 25.5 °C 14.6 °C 1015.8 hPa SW 9.3 km/h 9.3 km/h 51 % 0.0 mm
16:34 25.5 °C 14.6 °C 1015.8 hPa SSW 9.3 km/h 9.3 km/h 51 % 0.0 mm
16:39 26.1 °C 15.2 °C 1015.8 hPa SW 7.4 km/h 7.4 km/h 51 % 0.0 mm
16:44 26.2 °C 15.3 °C 1015.8 hPa SSW 9.3 km/h 9.3 km/h 51 % 0.0 mm
16:49 25.6 °C 14.7 °C 1015.8 hPa SW 13.0 km/h 13.0 km/h 51 % 0.0 mm
16:54 25.8 °C 14.9 °C 1015.8 hPa West 7.4 km/h 7.4 km/h 51 % 0.0 mm
16:59 26.2 °C 15.3 °C 1015.8 hPa SSE 7.4 km/h 7.4 km/h 51 % 0.0 mm
17:04 26.2 °C 15.3 °C 1015.8 hPa South 7.6 km/h 7.6 km/h 51 % 0.0 mm
17:09 26.0 °C 15.1 °C 1015.8 hPa SSE 11.1 km/h 11.1 km/h 51 % 0.0 mm
17:14 25.8 °C 14.9 °C 1015.8 hPa SW 13.0 km/h 13.0 km/h 51 % 0.0 mm
17:19 25.5 °C 14.9 °C 1014.8 hPa SW 7.4 km/h 7.4 km/h 52 % 0.0 mm
17:24 25.5 °C 14.9 °C 1014.8 hPa South 14.8 km/h 14.8 km/h 52 % 0.0 mm
17:29 25.4 °C 14.8 °C 1014.8 hPa South 13.0 km/h 13.0 km/h 52 % 0.0 mm
17:34 25.6 °C 15.0 °C 1015.8 hPa SSW 11.1 km/h 11.1 km/h 52 % 0.0 mm
17:39 25.5 °C 15.2 °C 1015.8 hPa SSE 13.0 km/h 13.0 km/h 53 % 0.0 mm
17:44 25.3 °C 15.1 °C 1015.8 hPa WSW 11.1 km/h 11.1 km/h 53 % 0.0 mm
17:49 25.2 °C 14.9 °C 1015.8 hPa SSW 5.6 km/h 5.6 km/h 53 % 0.0 mm
17:54 25.0 °C 14.8 °C 1015.8 hPa SSW 5.6 km/h 5.6 km/h 53 % 0.0 mm
17:59 24.9 °C 15.2 °C 1015.8 hPa SSW 9.3 km/h 9.3 km/h 55 % 0.0 mm
18:04 24.7 °C 15.1 °C 1014.8 hPa SSW 11.1 km/h 11.1 km/h 55 % 0.0 mm
18:09 24.4 °C 15.1 °C 1014.8 hPa SSW 20.4 km/h 20.4 km/h 56 % 0.0 mm
18:14 24.3 °C 14.9 °C 1014.8 hPa SW 9.3 km/h 9.3 km/h 56 % 0.0 mm
18:19 24.3 °C 15.2 °C 1014.8 hPa SW 13.0 km/h 13.0 km/h 57 % 0.0 mm
18:24 24.2 °C 15.2 °C 1014.8 hPa SW 7.4 km/h 7.4 km/h 57 % 0.0 mm
18:29 24.1 °C 15.1 °C 1014.8 hPa SSE 14.8 km/h 14.8 km/h 57 % 0.0 mm
18:34 24.2 °C 15.2 °C 1015.8 hPa SW 9.3 km/h 9.3 km/h 57 % 0.0 mm
18:39 24.1 °C 15.3 °C 1015.8 hPa WNW 9.7 km/h 9.7 km/h 58 % 0.0 mm
18:44 24.0 °C 15.2 °C 1015.8 hPa SW 13.0 km/h 13.0 km/h 58 % 0.0 mm
18:49 23.7 °C 15.5 °C 1015.8 hPa WSW 13.7 km/h 13.7 km/h 60 % 0.0 mm
18:54 23.5 °C 15.3 °C 1015.8 hPa SW 9.3 km/h 9.3 km/h 60 % 0.0 mm
18:59 23.3 °C 15.1 °C 1015.8 hPa SSW 13.0 km/h 13.0 km/h 60 % 0.0 mm
19:04 23.1 °C 15.2 °C 1015.8 hPa SW 9.5 km/h 9.5 km/h 61 % 0.0 mm
19:05 23.1 °C 15.2 °C 1015.8 hPa SW 13.0 km/h 13.0 km/h 61 % 0.0 mm
19:10 22.9 °C 15.2 °C 1015.8 hPa South 9.3 km/h 9.3 km/h 62 % 0.0 mm
19:15 22.7 °C 15.3 °C 1015.8 hPa SW 9.3 km/h 9.3 km/h 63 % 0.0 mm
19:20 22.5 °C 15.1 °C 1015.8 hPa SSW 11.1 km/h 11.1 km/h 63 % 0.0 mm
19:25 22.5 °C 15.3 °C 1015.8 hPa SW 9.3 km/h 9.3 km/h 64 % 0.0 mm
19:30 22.3 °C 15.2 °C 1015.8 hPa SW 9.3 km/h 9.3 km/h 64 % 0.0 mm
19:35 22.2 °C 15.3 °C 1015.8 hPa SW 13.0 km/h 13.0 km/h 65 % 0.0 mm
19:40 22.1 °C 15.2 °C 1015.8 hPa SW 9.3 km/h 9.3 km/h 65 % 0.0 mm
19:45 22.0 °C 15.1 °C 1015.8 hPa South 13.0 km/h 13.0 km/h 65 % 0.0 mm
19:50 21.9 °C 15.5 °C 1015.8 hPa SSW 9.3 km/h 9.3 km/h 67 % 0.0 mm
19:55 21.7 °C 15.6 °C 1015.8 hPa SSE 13.0 km/h 13.0 km/h 68 % 0.0 mm
20:00 21.6 °C 15.4 °C 1015.8 hPa WSW 7.4 km/h 7.4 km/h 68 % 0.0 mm
20:05 21.5 °C 15.6 °C 1016.8 hPa SSW 11.1 km/h 11.1 km/h 69 % 0.0 mm
20:10 21.4 °C 15.7 °C 1016.8 hPa SSW 9.3 km/h 9.3 km/h 70 % 0.0 mm
20:15 21.3 °C 15.6 °C 1016.8 hPa WSW 9.7 km/h 9.7 km/h 70 % 0.0 mm
20:20 21.2 °C 15.5 °C 1016.8 hPa SW 9.3 km/h 9.3 km/h 70 % 0.0 mm
20:25 21.1 °C 15.6 °C 1016.8 hPa WSW 9.3 km/h 9.3 km/h 71 % 0.0 mm
20:30 21.0 °C 15.6 °C 1016.8 hPa SSW 9.0 km/h 9.0 km/h 71 % 0.0 mm
20:35 20.9 °C 15.4 °C 1017.8 hPa WSW 9.3 km/h 9.3 km/h 71 % 0.0 mm
20:40 20.8 °C 15.6 °C 1017.8 hPa West 11.1 km/h 11.1 km/h 72 % 0.0 mm
20:45 20.8 °C 15.6 °C 1017.8 hPa SW 9.3 km/h 9.3 km/h 72 % 0.0 mm
20:50 20.7 °C 15.4 °C 1017.8 hPa SSW 13.0 km/h 13.0 km/h 72 % 0.0 mm
20:55 20.6 °C 15.6 °C 1017.8 hPa WSW 7.4 km/h 7.4 km/h 73 % 0.0 mm
21:00 20.5 °C 15.5 °C 1017.8 hPa SW 5.6 km/h 5.6 km/h 73 % 0.0 mm
21:05 20.4 °C 15.4 °C 1017.8 hPa SW 9.3 km/h 9.3 km/h 73 % 0.0 mm
21:10 20.4 °C 15.4 °C 1017.8 hPa SW 11.1 km/h 11.1 km/h 73 % 0.0 mm
21:15 20.3 °C 15.5 °C 1017.8 hPa SW 9.3 km/h 9.3 km/h 74 % 0.0 mm
21:20 20.3 °C 15.5 °C 1017.8 hPa SW 5.6 km/h 5.6 km/h 74 % 0.0 mm
21:25 20.2 °C 15.4 °C 1017.8 hPa SW 6.1 km/h 6.1 km/h 74 % 0.0 mm
21:30 20.2 °C 15.6 °C 1017.8 hPa SW 9.3 km/h 9.3 km/h 75 % 0.0 mm
21:35 20.1 °C 15.6 °C 1017.8 hPa SW 7.4 km/h 7.4 km/h 75 % 0.0 mm
21:40 20.1 °C 15.6 °C 1017.8 hPa SW 5.6 km/h 5.6 km/h 75 % 0.0 mm
21:45 20.0 °C 15.7 °C 1017.8 hPa WSW 5.6 km/h 5.6 km/h 76 % 0.0 mm
21:50 20.0 °C 15.7 °C 1017.8 hPa SSW 5.6 km/h 5.6 km/h 76 % 0.0 mm
21:55 19.9 °C 15.6 °C 1017.8 hPa SW 4.7 km/h 4.7 km/h 76 % 0.0 mm
22:00 19.9 °C 15.7 °C 1017.8 hPa WSW 3.9 km/h 3.9 km/h 77 % 0.0 mm
22:05 19.9 °C 15.7 °C 1017.8 hPa SW 3.7 km/h 3.7 km/h 77 % 0.0 mm
22:10 19.8 °C 15.7 °C 1017.8 hPa SW 3.7 km/h 3.7 km/h 77 % 0.0 mm
22:15 19.8 °C 15.7 °C 1017.8 hPa West 3.2 km/h   77 % 0.0 mm
22:20 19.8 °C 15.7 °C 1017.8 hPa WSW 1.9 km/h 1.9 km/h 77 % 0.0 mm
22:25 19.8 °C 15.7 °C 1017.8 hPa WNW 3.7 km/h 3.7 km/h 77 % 0.0 mm
22:30 19.8 °C 15.7 °C 1017.8 hPa West 3.7 km/h 3.7 km/h 77 % 0.0 mm
22:35 19.8 °C 15.7 °C 1017.8 hPa West 1.9 km/h 1.9 km/h 77 % 0.0 mm
22:40 19.8 °C 15.8 °C 1017.8 hPa Calm     78 % 0.0 mm
22:45 19.7 °C 15.8 °C 1017.8 hPa WSW 1.9 km/h   78 % 0.0 mm
22:50 19.6 °C 15.7 °C 1018.8 hPa Calm     78 % 0.0 mm
22:55 19.6 °C 15.7 °C 1018.8 hPa Calm     78 % 0.0 mm
23:00 19.6 °C 15.7 °C 1018.8 hPa WSW 3.7 km/h 3.7 km/h 78 % 0.0 mm
23:05 19.6 °C 15.7 °C 1017.8 hPa WSW 1.9 km/h 1.9 km/h 78 % 0.0 mm
23:10 19.5 °C 15.8 °C 1017.8 hPa Calm     79 % 0.0 mm
23:15 19.4 °C 15.7 °C 1017.8 hPa Calm     79 % 0.0 mm
23:20 19.3 °C 15.6 °C 1018.8 hPa Calm     79 % 0.0 mm
23:25 19.3 °C 15.6 °C 1018.8 hPa Calm     79 % 0.0 mm
23:30 19.2 °C 15.4 °C 1018.8 hPa Calm     79 % 0.0 mm
23:35 19.2 °C 15.4 °C 1018.8 hPa Calm     79 % 0.0 mm
23:40 19.2 °C 15.4 °C 1018.8 hPa Calm     79 % 0.0 mm
23:45 19.1 °C 15.6 °C 1018.8 hPa Calm     80 % 0.0 mm
23:50 19.1 °C 15.6 °C 1018.8 hPa Calm     80 % 0.0 mm
23:55 19.0 °C 15.7 °C 1018.8 hPa Calm     81 % 0.0 mm
Meteo Sesrovires
Elogis d' Weather Underground - 3.5 mb

Guio original per  Jim McMurry - jmcmurry@mwt.net Adaptat per a la plantilla per  Wim van der Kuil - Leuven-Template.eu

Trobareu la nostra informacio del temps tambe a:

Weather Underground

AWEKAS